Time;durP1;ratioP1;P1;durP2;ratioP2;P2;SDS_P1;SDS_P2;PMS_P1;PMS_P2;Temp;Humidity;BMP_temperature;BMP_pressure;BME280_temperature;BME280_humidity;BME280_pressure;Samples;Min_cycle;Max_cycle;Signal;HPM_P1;HPM_P2
2022/05/25 00:01:47;;;;;;;14.90;12.50;;;;;;;15.61;100.00;99041.22;5109762;28;20222;-82
2022/05/25 00:04:14;;;;;;;15.87;12.20;;;;;;;15.61;100.00;99041.22;5110010;28;20236;-81
2022/05/25 00:06:41;;;;;;;16.33;12.57;;;;;;;15.57;100.00;99041.69;5109801;28;20217;-82
2022/05/25 00:09:07;;;;;;;16.13;11.60;;;;;;;15.54;100.00;99050.50;5109810;28;20570;-88
2022/05/25 00:11:35;;;;;;;13.90;11.37;;;;;;;15.56;100.00;99040.03;5109611;28;20221;-82
2022/05/25 00:14:03;;;;;;;18.97;12.27;;;;;;;15.54;100.00;99052.28;5110090;28;20212;-82
2022/05/25 00:16:30;;;;;;;14.53;11.83;;;;;;;15.52;100.00;99057.56;5111978;28;20221;-87
2022/05/25 00:21:42;;;;;;;16.00;11.63;;;;;;;15.54;100.00;99044.53;5114211;28;20708;-89
2022/05/25 00:24:09;;;;;;;14.67;12.37;;;;;;;15.61;100.00;99050.72;5113956;28;20217;-87
2022/05/25 00:26:36;;;;;;;14.50;11.90;;;;;;;15.55;100.00;99046.16;5113473;28;20238;-88
2022/05/25 00:29:05;;;;;;;17.87;12.97;;;;;;;15.55;100.00;99036.66;5113780;27;20280;-88
2022/05/25 00:31:32;;;;;;;18.20;12.17;;;;;;;15.52;100.00;99029.22;5113491;28;20221;-82
2022/05/25 00:33:59;;;;;;;18.50;12.77;;;;;;;15.51;100.00;99037.91;5113572;28;20190;-86
2022/05/25 00:36:26;;;;;;;16.00;12.03;;;;;;;15.43;100.00;99035.22;5113407;28;20225;-82
2022/05/25 00:38:53;;;;;;;17.13;12.20;;;;;;;15.43;100.00;99045.53;5113288;28;20208;-82
2022/05/25 00:41:23;;;;;;;15.27;11.97;;;;;;;15.34;100.00;99030.94;5113885;28;20593;-88
2022/05/25 00:43:50;;;;;;;14.90;11.53;;;;;;;15.30;100.00;99030.41;5113145;28;20236;-82
2022/05/25 00:46:20;;;;;;;15.03;11.83;;;;;;;15.30;100.00;99024.44;5113464;28;20201;-87
2022/05/25 00:48:51;;;;;;;16.57;11.60;;;;;;;15.29;100.00;99031.34;5113677;28;20197;-87
2022/05/25 00:51:24;;;;;;;14.23;11.07;;;;;;;15.22;100.00;99039.81;5113451;28;20197;-88
2022/05/25 00:53:57;;;;;;;18.67;11.97;;;;;;;15.17;100.00;99043.59;5113454;28;20618;-82
2022/05/25 00:56:27;;;;;;;15.77;11.93;;;;;;;15.17;100.00;99053.09;5113230;28;20212;-88
2022/05/25 00:58:58;;;;;;;16.10;12.17;;;;;;;15.17;100.00;99056.47;5113329;27;20200;-88
2022/05/25 01:01:28;;;;;;;15.50;11.27;;;;;;;15.20;100.00;99052.00;5113400;28;20225;-82
2022/05/25 01:03:55;;;;;;;15.10;11.93;;;;;;;15.21;100.00;99045.91;5113041;28;20725;-82
2022/05/25 01:06:43;;;;;;;14.57;11.70;;;;;;;15.19;100.00;99037.53;5112281;28;20671;-82
2022/05/25 01:09:22;;;;;;;17.77;12.00;;;;;;;15.12;100.00;99027.75;5112658;28;20695;-81
2022/05/25 01:11:58;;;;;;;14.50;11.20;;;;;;;15.08;100.00;99036.72;5112766;28;20221;-89
2022/05/25 01:14:42;;;;;;;17.20;12.50;;;;;;;15.01;100.00;99035.69;5112516;28;20204;-89
2022/05/25 01:17:22;;;;;;;17.60;12.50;;;;;;;14.97;100.00;99029.16;5112620;28;20278;-81
2022/05/25 01:20:19;;;;;;;17.10;12.67;;;;;;;14.96;100.00;99035.28;5112618;27;20207;-82
2022/05/25 01:23:23;;;;;;;16.23;12.60;;;;;;;14.95;100.00;99031.06;5099810;28;20224;-82
2022/05/25 01:26:13;;;;;;;15.73;12.27;;;;;;;14.93;100.00;99048.44;5112605;28;20240;-90
2022/05/25 01:28:56;;;;;;;16.27;11.97;;;;;;;14.92;100.00;99049.38;5108378;28;20216;-82
2022/05/25 01:31:31;;;;;;;18.63;12.27;;;;;;;14.93;100.00;99043.28;5112896;28;20201;-82
2022/05/25 01:34:05;;;;;;;17.23;12.50;;;;;;;14.86;100.00;99050.72;5112510;28;20293;-82
2022/05/25 01:36:42;;;;;;;15.30;12.60;;;;;;;14.86;100.00;99052.50;5112445;27;20212;-82
2022/05/25 01:39:14;;;;;;;17.93;13.03;;;;;;;14.88;100.00;99041.13;5112231;28;20207;-82
2022/05/25 01:41:47;;;;;;;17.40;13.37;;;;;;;14.88;100.00;99030.00;5112364;28;20231;-89
2022/05/25 01:44:18;;;;;;;22.87;14.43;;;;;;;14.94;100.00;99032.03;5112370;28;20231;-82
2022/05/25 01:46:51;;;;;;;20.87;14.47;;;;;;;14.90;100.00;99038.41;5112339;28;20230;-82
2022/05/25 01:49:21;;;;;;;19.57;14.30;;;;;;;14.92;100.00;99036.50;5112164;28;20209;-90
2022/05/25 01:51:53;;;;;;;22.47;14.73;;;;;;;14.91;100.00;99034.88;5111855;28;20610;-82
2022/05/25 01:54:24;;;;;;;19.00;14.17;;;;;;;14.89;100.00;99037.63;5111990;28;20224;-83
2022/05/25 01:56:56;;;;;;;22.73;14.93;;;;;;;14.93;100.00;99035.56;5112148;28;20221;-89
2022/05/25 01:59:23;;;;;;;18.40;14.37;;;;;;;14.94;100.00;99039.75;5111668;27;20182;-83
2022/05/25 02:04:19;;;;;;;19.83;13.87;;;;;;;14.90;100.00;99043.56;5111492;28;20221;-89
2022/05/25 02:04:44;;;;;;;20.00;14.57;;;;;;;14.92;100.00;99046.78;5111578;28;20239;-89
2022/05/25 02:07:22;;;;;;;21.77;14.40;;;;;;;14.90;100.00;99059.81;5111553;28;20791;-84
2022/05/25 02:10:08;;;;;;;20.87;14.47;;;;;;;14.89;100.00;99063.34;5111790;28;20204;-90
2022/05/25 02:12:52;;;;;;;19.90;14.60;;;;;;;14.87;100.00;99051.56;5111845;28;20227;-90
2022/05/25 02:15:28;;;;;;;21.10;14.93;;;;;;;14.85;100.00;99050.88;5111484;28;20212;-89
2022/05/25 02:18:04;;;;;;;21.67;15.70;;;;;;;14.84;100.00;99060.38;5111438;28;20221;-89
2022/05/25 02:20:38;;;;;;;21.13;15.90;;;;;;;14.82;100.00;99054.53;5111760;28;20301;-86
2022/05/25 02:23:12;;;;;;;23.83;15.20;;;;;;;14.81;100.00;99059.84;5111399;28;20216;-90
2022/05/25 02:25:46;;;;;;;20.57;14.77;;;;;;;14.79;100.00;99066.88;5111216;28;20240;-90
2022/05/25 02:28:18;;;;;;;25.93;16.60;;;;;;;14.80;100.00;99069.31;5111706;28;20213;-82
2022/05/25 02:30:52;;;;;;;22.57;15.93;;;;;;;14.77;100.00;99076.50;5111059;28;20201;-82
2022/05/25 02:33:25;;;;;;;20.73;15.40;;;;;;;14.68;100.00;99078.94;5111257;28;20216;-90
2022/05/25 02:35:53;;;;;;;22.83;16.17;;;;;;;14.72;100.00;99082.06;5111254;28;20231;-91
2022/05/25 02:38:20;;;;;;;23.17;16.47;;;;;;;14.68;100.00;99073.00;5111149;28;20235;-90
2022/05/25 02:40:46;;;;;;;21.23;15.97;;;;;;;14.62;100.00;99079.50;5111528;28;20210;-90
2022/05/25 02:43:14;;;;;;;22.67;16.13;;;;;;;14.62;100.00;99070.97;5111117;28;20218;-82
2022/05/25 02:45:41;;;;;;;24.23;17.37;;;;;;;14.58;100.00;99067.84;5110931;28;20233;-90
2022/05/25 02:48:08;;;;;;;25.73;16.70;;;;;;;14.53;100.00;99067.44;5111326;28;20710;-90
2022/05/25 02:50:37;;;;;;;29.97;20.33;;;;;;;14.54;100.00;99074.22;5111142;28;20208;-82
2022/05/25 02:53:04;;;;;;;28.13;18.80;;;;;;;14.58;100.00;99075.59;5111136;28;20235;-82
2022/05/25 02:55:32;;;;;;;28.60;18.80;;;;;;;14.59;100.00;99074.63;5110944;28;20205;-91
2022/05/25 02:57:59;;;;;;;27.50;19.43;;;;;;;14.58;100.00;99070.44;5110742;28;20286;-81
2022/05/25 03:00:26;;;;;;;30.10;19.73;;;;;;;14.62;100.00;99073.53;5110879;28;20290;-90
2022/05/25 03:02:54;;;;;;;26.27;18.63;;;;;;;14.61;100.00;99070.16;5111163;28;20669;-82
2022/05/25 03:05:21;;;;;;;26.27;18.40;;;;;;;14.65;100.00;99074.06;5111078;28;20282;-82
2022/05/25 03:07:50;;;;;;;27.67;18.57;;;;;;;14.69;100.00;99083.16;5110604;28;20312;-90
2022/05/25 03:10:17;;;;;;;28.10;18.50;;;;;;;14.76;100.00;99098.06;5110563;28;20193;-89
2022/05/25 03:12:44;;;;;;;24.03;17.63;;;;;;;14.82;100.00;99107.78;5110265;28;20217;-89
2022/05/25 03:15:13;;;;;;;24.50;17.47;;;;;;;14.87;100.00;99108.19;5110671;28;20198;-90
2022/05/25 03:17:40;;;;;;;24.10;17.20;;;;;;;14.92;100.00;99118.88;5110313;28;20771;-89
2022/05/25 03:20:08;;;;;;;22.40;17.17;;;;;;;14.97;100.00;99121.06;5110381;28;20197;-89
2022/05/25 03:22:37;;;;;;;23.80;16.53;;;;;;;15.00;100.00;99126.72;5110256;28;20228;-89
2022/05/25 03:25:07;;;;;;;22.47;16.80;;;;;;;15.02;100.00;99131.75;5110199;28;20323;-82
2022/05/25 03:27:34;;;;;;;23.47;17.80;;;;;;;15.06;100.00;99133.09;5110323;28;20228;-82
2022/05/25 03:30:01;;;;;;;25.77;18.43;;;;;;;15.07;100.00;99134.72;5110441;28;20223;-90
2022/05/25 03:32:28;;;;;;;26.60;18.07;;;;;;;15.03;100.00;99126.44;5110008;28;20413;-90
2022/05/25 03:34:55;;;;;;;25.83;18.27;;;;;;;15.04;100.00;99122.09;5110919;28;20201;-89
2022/05/25 03:37:22;;;;;;;25.87;17.70;;;;;;;15.01;100.00;99128.38;5110263;28;20225;-86
2022/05/25 03:39:48;;;;;;;24.80;17.53;;;;;;;15.05;100.00;99124.56;5110325;28;20203;-90
2022/05/25 03:42:19;;;;;;;20.97;15.97;;;;;;;15.08;100.00;99123.47;5110527;28;20225;-82
2022/05/25 03:44:46;;;;;;;21.43;15.40;;;;;;;15.07;100.00;99127.81;5109996;28;20235;-91
2022/05/25 03:47:13;;;;;;;20.63;15.37;;;;;;;15.11;100.00;99129.16;5109922;28;20229;-82
2022/05/25 03:49:40;;;;;;;22.80;15.00;;;;;;;15.10;100.00;99131.88;5109961;28;20201;-82
2022/05/25 03:52:07;;;;;;;21.53;14.77;;;;;;;15.12;100.00;99129.97;5109979;28;20400;-87
2022/05/25 03:54:37;;;;;;;19.83;14.13;;;;;;;15.11;100.00;99125.75;5109816;28;20264;-82
2022/05/25 03:57:04;;;;;;;22.03;15.47;;;;;;;15.14;100.00;99128.88;5109876;28;20249;-90
2022/05/25 03:59:32;;;;;;;20.47;14.33;;;;;;;15.13;100.00;99137.56;5109787;28;20196;-90
2022/05/25 04:01:59;;;;;;;18.90;14.07;;;;;;;15.17;100.00;99141.47;5109914;28;20225;-90
2022/05/25 04:04:26;;;;;;;22.50;14.63;;;;;;;15.24;100.00;99138.34;5109928;28;20244;-90
2022/05/25 04:06:53;;;;;;;21.37;15.07;;;;;;;15.28;100.00;99140.50;5109821;28;20218;-90
2022/05/25 04:09:20;;;;;;;22.17;15.30;;;;;;;15.36;100.00;99139.81;5109614;28;20197;-82
2022/05/25 04:11:46;;;;;;;20.87;15.13;;;;;;;15.39;100.00;99134.38;5109696;28;20248;-90
2022/05/25 04:14:15;;;;;;;19.83;14.80;;;;;;;15.45;100.00;99135.59;5109721;28;20201;-90
2022/05/25 04:16:43;;;;;;;20.23;14.77;;;;;;;15.46;100.00;99143.16;5109639;28;20221;-82
2022/05/25 04:19:10;;;;;;;21.40;15.03;;;;;;;15.46;100.00;99148.31;5109705;28;20208;-81
2022/05/25 04:21:37;;;;;;;20.00;14.97;;;;;;;15.49;100.00;99148.03;5110029;28;20225;-89
2022/05/25 04:24:05;;;;;;;21.00;15.90;;;;;;;15.54;100.00;99140.69;5109406;28;20596;-89
2022/05/25 04:26:31;;;;;;;20.43;14.80;;;;;;;15.62;100.00;99133.06;5109129;28;20232;-82
2022/05/25 04:29:00;;;;;;;20.07;14.97;;;;;;;15.59;100.00;99138.53;5109570;28;20197;-82
2022/05/25 04:31:27;;;;;;;19.70;14.30;;;;;;;15.73;100.00;99144.19;5109369;28;20728;-82
2022/05/25 04:33:55;;;;;;;22.43;14.77;;;;;;;15.81;100.00;99141.69;5109430;28;20283;-82
2022/05/25 04:36:22;;;;;;;21.67;15.43;;;;;;;15.94;100.00;99142.19;5109316;28;20236;-89
2022/05/25 04:38:49;;;;;;;18.53;14.17;;;;;;;16.02;100.00;99139.69;5109296;28;20198;-82
2022/05/25 04:41:16;;;;;;;18.13;13.93;;;;;;;16.06;100.00;99148.78;5109414;28;20201;-82
2022/05/25 04:43:43;;;;;;;20.30;14.93;;;;;;;16.15;100.00;99148.88;5109745;28;20196;-82
2022/05/25 04:46:12;;;;;;;20.83;14.27;;;;;;;16.29;100.00;99144.03;5109232;28;20230;-89
2022/05/25 04:48:39;;;;;;;18.60;13.63;;;;;;;16.48;100.00;99153.38;5109501;28;20208;-88
2022/05/25 04:51:08;;;;;;;19.10;13.97;;;;;;;16.68;100.00;99163.56;5109181;28;20197;-82
2022/05/25 04:53:35;;;;;;;19.20;13.97;;;;;;;16.88;100.00;99156.50;5109446;28;20685;-82
2022/05/25 04:58:48;;;;;;;17.17;13.27;;;;;;;17.06;99.66;99169.41;5109270;28;20188;-82
2022/05/25 05:01:19;;;;;;;17.57;13.73;;;;;;;17.11;99.41;99175.75;5109188;28;20204;-82
2022/05/25 05:03:46;;;;;;;18.23;13.80;;;;;;;17.28;99.70;99184.41;5111639;28;20201;-88
2022/05/25 05:06:15;;;;;;;20.03;14.00;;;;;;;17.57;100.00;99180.69;5112810;28;20232;-89
2022/05/25 05:08:42;;;;;;;17.77;14.37;;;;;;;17.83;99.36;99173.78;5113153;28;20199;-82
2022/05/25 05:11:10;;;;;;;18.47;13.67;;;;;;;18.12;99.19;99172.56;5112658;28;20204;-82
2022/05/25 05:13:38;;;;;;;17.70;13.77;;;;;;;18.24;97.51;99170.50;5112807;28;20570;-82
2022/05/25 05:16:07;;;;;;;16.50;13.23;;;;;;;18.46;97.73;99172.47;5112746;28;20193;-82
2022/05/25 05:18:34;;;;;;;17.53;13.03;;;;;;;18.60;97.09;99176.22;5112655;28;20229;-82
2022/05/25 05:21:02;;;;;;;18.23;13.43;;;;;;;18.85;97.10;99173.69;5112606;28;20211;-82
2022/05/25 05:23:30;;;;;;;16.20;12.63;;;;;;;19.04;96.55;99165.59;5112186;28;20319;-88
2022/05/25 05:25:57;;;;;;;16.40;12.63;;;;;;;19.27;96.37;99172.69;5112246;28;20229;-82
2022/05/25 05:28:29;;;;;;;17.70;12.13;;;;;;;19.42;94.64;99176.22;5112353;28;20471;-88
2022/05/25 05:30:58;;;;;;;14.40;11.83;;;;;;;19.59;93.23;99183.00;5112265;28;20209;-81
2022/05/25 05:33:26;;;;;;;15.80;11.90;;;;;;;19.82;94.11;99177.94;5112584;28;20221;-82
2022/05/25 05:36:00;;;;;;;16.17;11.77;;;;;;;19.99;92.53;99177.88;5112370;28;20208;-81
2022/05/25 05:38:28;;;;;;;13.73;11.30;;;;;;;20.23;91.86;99179.53;5112328;28;20699;-82
2022/05/25 05:40:57;;;;;;;15.00;11.00;;;;;;;20.11;90.82;99182.50;5112486;28;20578;-81
2022/05/25 05:43:25;;;;;;;12.73;10.13;;;;;;;20.45;89.77;99181.34;5111982;28;20222;-82
2022/05/25 05:45:53;;;;;;;13.77;11.30;;;;;;;20.67;88.81;99181.56;5111777;28;20237;-82
2022/05/25 05:48:22;;;;;;;12.17;10.00;;;;;;;20.92;87.84;99177.00;5112003;28;20790;-81
2022/05/25 05:50:51;;;;;;;12.13;9.33;;;;;;;21.15;86.42;99185.56;5111982;28;20213;-82
2022/05/25 05:53:18;;;;;;;11.00;9.43;;;;;;;21.35;84.98;99178.06;5111776;28;20227;-82
2022/05/25 05:55:47;;;;;;;11.73;9.50;;;;;;;21.42;83.98;99184.19;5111764;28;20232;-81
2022/05/25 05:58:16;;;;;;;12.07;9.00;;;;;;;21.40;81.91;99191.34;5111501;28;20225;-82
2022/05/25 06:00:43;;;;;;;10.97;8.67;;;;;;;21.60;83.52;99185.63;5111942;28;20209;-82
2022/05/25 06:03:10;;;;;;;9.73;7.83;;;;;;;21.70;82.21;99194.78;5111636;28;20228;-82
2022/05/25 06:05:37;;;;;;;10.20;7.67;;;;;;;22.00;81.95;99193.94;5111441;28;20235;-82
2022/05/25 06:08:10;;;;;;;11.03;7.43;;;;;;;22.21;80.49;99201.84;5111367;28;20721;-82
2022/05/25 06:10:37;;;;;;;8.83;7.47;;;;;;;22.41;79.91;99209.88;5111681;28;20208;-82
2022/05/25 06:13:07;;;;;;;9.50;7.93;;;;;;;22.75;80.00;99214.44;5111217;28;20606;-82
2022/05/25 06:21:04;;;;;;;8.77;7.50;;;;;;;23.36;73.37;99220.94;5111504;28;20257;-82
2022/05/25 06:23:31;;;;;;;10.15;7.13;;;;;;;23.26;73.58;99222.09;5111264;28;20234;-82
2022/05/25 06:25:58;;;;;;;13.15;7.40;;;;;;;23.55;76.01;99225.50;5110966;28;20793;-82
2022/05/25 06:28:25;;;;;;;14.45;8.80;;;;;;;23.76;75.77;99219.44;5111276;28;20220;-82
2022/05/25 06:30:53;;;;;;;10.32;8.60;;;;;;;23.72;74.51;99224.22;5111476;28;20296;-82
2022/05/25 06:33:20;;;;;;;9.68;8.02;;;;;;;23.87;75.26;99220.69;5111297;28;20599;-82
2022/05/25 06:35:47;;;;;;;9.93;8.07;;;;;;;24.03;71.52;99225.59;5111459;28;20197;-81
2022/05/25 06:38:14;;;;;;;9.90;7.10;;;;;;;24.13;71.53;99228.66;5111493;28;20217;-82
2022/05/25 06:40:41;;;;;;;10.20;7.78;;;;;;;24.27;71.08;99232.13;5111019;28;20283;-82
2022/05/25 06:43:08;;;;;;;9.45;7.68;;;;;;;24.34;68.89;99229.53;5110947;28;20213;-82
2022/05/25 06:45:35;;;;;;;9.23;7.32;;;;;;;24.50;67.42;99236.25;5111002;28;20655;-78
2022/05/25 06:48:05;;;;;;;10.25;8.80;;;;;;;24.67;68.55;99240.09;5111064;28;20224;-82
2022/05/25 06:50:34;;;;;;;11.93;7.97;;;;;;;24.85;68.82;99231.69;5111020;28;20237;-82
2022/05/25 06:53:01;;;;;;;10.95;8.30;;;;;;;24.92;67.24;99237.72;5110792;28;20282;-82
2022/05/25 06:55:27;;;;;;;12.77;8.60;;;;;;;24.99;67.71;99237.72;5110733;28;20205;-82
2022/05/25 06:57:54;;;;;;;10.20;8.13;;;;;;;25.19;69.67;99235.13;5110628;28;20225;-82
2022/05/25 07:00:21;;;;;;;9.93;8.45;;;;;;;25.38;67.85;99234.31;5110788;28;20205;-81
2022/05/25 07:02:48;;;;;;;9.20;7.43;;;;;;;24.88;67.23;99226.03;5110530;28;20217;-81
2022/05/25 07:05:16;;;;;;;10.57;7.90;;;;;;;25.02;69.06;99219.81;5110854;28;20229;-82
2022/05/25 07:07:43;;;;;;;11.93;7.95;;;;;;;25.12;67.53;99226.44;5110367;28;20224;-82
2022/05/25 07:10:11;;;;;;;11.13;7.38;;;;;;;25.31;66.36;99230.91;5110650;28;20239;-81
2022/05/25 07:12:37;;;;;;;10.20;7.57;;;;;;;25.40;66.11;99232.31;5110473;28;20236;-80
2022/05/25 07:15:05;;;;;;;10.02;7.63;;;;;;;25.32;68.27;99232.50;5110320;28;20212;-81
2022/05/25 07:17:34;;;;;;;12.65;8.13;;;;;;;25.51;70.22;99231.69;5110437;28;20749;-82
2022/05/25 07:20:01;;;;;;;9.80;7.75;;;;;;;25.73;66.83;99228.81;5110591;28;20205;-82
2022/05/25 07:22:30;;;;;;;9.88;6.97;;;;;;;25.91;66.97;99228.19;5110395;28;20224;-81
2022/05/25 07:24:57;;;;;;;9.40;7.28;;;;;;;25.84;67.84;99225.59;5109862;28;20596;-81
2022/05/25 07:27:24;;;;;;;9.40;6.95;;;;;;;26.08;66.64;99231.16;5109805;28;20289;-82
2022/05/25 07:29:51;;;;;;;9.32;7.00;;;;;;;26.15;63.17;99235.34;5110149;28;20655;-80
2022/05/25 07:32:22;;;;;;;8.20;6.95;;;;;;;26.14;62.54;99235.56;5109904;28;20228;-81
2022/05/25 07:34:55;;;;;;;8.30;6.93;;;;;;;26.20;64.85;99235.50;5110518;28;20213;-80
2022/05/25 07:37:24;;;;;;;10.73;7.00;;;;;;;26.27;62.04;99230.25;5110252;28;20243;-81
2022/05/25 07:39:56;;;;;;;7.97;6.60;;;;;;;26.24;61.59;99235.94;5110010;28;20208;-82
2022/05/25 07:42:25;;;;;;;11.35;7.38;;;;;;;25.79;64.09;99228.00;5109910;28;20232;-82
2022/05/25 07:44:55;;;;;;;10.25;7.40;;;;;;;25.88;65.35;99221.53;5110155;28;20198;-82
2022/05/25 07:47:23;;;;;;;11.13;7.70;;;;;;;26.10;66.86;99234.38;5109627;28;20768;-80
2022/05/25 07:49:50;;;;;;;10.75;6.97;;;;;;;26.15;62.93;99237.16;5109718;28;20596;-81
2022/05/25 07:52:18;;;;;;;8.75;6.85;;;;;;;26.17;61.96;99248.25;5109945;28;20224;-80
2022/05/25 07:54:46;;;;;;;10.18;6.70;;;;;;;26.40;63.18;99245.09;5110146;28;20223;-80
2022/05/25 07:57:15;;;;;;;13.60;8.13;;;;;;;26.35;59.93;99247.53;5109923;28;20312;-80
2022/05/25 07:59:42;;;;;;;12.43;7.75;;;;;;;26.33;63.49;99249.59;5110104;28;20201;-81
2022/05/25 08:07:47;;;;;;;12.63;6.63;;;;;;;27.01;61.33;99254.25;5109622;28;20224;-81
2022/05/25 08:10:21;;;;;;;9.27;6.53;;;;;;;26.97;56.69;99258.31;5109634;28;20588;-80
2022/05/25 08:12:52;;;;;;;5.75;5.20;;;;;;;27.16;59.56;99260.00;5109815;28;20257;-80
2022/05/25 08:15:20;;;;;;;8.95;6.13;;;;;;;27.24;60.18;99261.56;5109801;28;20193;-82
2022/05/25 08:17:47;;;;;;;6.97;5.85;;;;;;;27.50;57.76;99253.44;5109827;28;20602;-82
2022/05/25 08:20:14;;;;;;;6.78;5.90;;;;;;;27.24;56.06;99259.72;5109760;28;20227;-82
2022/05/25 08:22:41;;;;;;;7.32;5.70;;;;;;;27.31;58.75;99271.00;5109605;28;20225;-82
2022/05/25 08:25:11;;;;;;;6.97;5.80;;;;;;;27.44;55.81;99271.91;5109312;28;20201;-82
2022/05/25 08:27:39;;;;;;;7.50;5.97;;;;;;;27.46;55.32;99272.47;5109699;28;20640;-83
2022/05/25 08:30:09;;;;;;;7.13;4.78;;;;;;;27.48;54.16;99267.81;5109927;28;20205;-80
2022/05/25 08:32:36;;;;;;;6.75;5.00;;;;;;;27.19;54.94;99267.44;5109721;28;20214;-81
2022/05/25 08:35:04;;;;;;;6.75;6.05;;;;;;;27.24;54.79;99267.59;5109565;28;20197;-80
2022/05/25 08:37:31;;;;;;;10.70;6.63;;;;;;;27.53;56.79;99271.38;5111421;28;20234;-83
2022/05/25 08:39:57;;;;;;;7.57;5.43;;;;;;;27.68;56.69;99278.91;5113654;28;20197;-82
2022/05/25 08:42:27;;;;;;;6.60;5.35;;;;;;;27.86;57.37;99280.00;5113670;28;20218;-83
2022/05/25 08:44:56;;;;;;;6.55;5.03;;;;;;;28.11;53.50;99283.34;5113346;28;20206;-81
2022/05/25 08:47:25;;;;;;;7.78;5.10;;;;;;;28.02;56.17;99295.19;5113156;28;20261;-83
2022/05/25 08:49:52;;;;;;;7.95;5.15;;;;;;;28.05;53.21;99289.50;5113218;28;20233;-82
2022/05/25 08:52:24;;;;;;;7.72;5.00;;;;;;;27.87;54.35;99286.88;5113338;28;20278;-81
2022/05/25 08:54:51;;;;;;;8.27;4.70;;;;;;;27.94;52.34;99274.44;5113073;28;20212;-82
2022/05/25 08:57:24;;;;;;;5.95;5.22;;;;;;;28.00;53.12;99270.94;5113370;28;20608;-82
2022/05/25 08:59:55;;;;;;;9.73;5.18;;;;;;;28.14;55.14;99271.59;5113522;28;20216;-84
2022/05/25 09:02:29;;;;;;;6.40;4.50;;;;;;;28.18;50.76;99273.53;5113249;28;20721;-80
2022/05/25 09:05:02;;;;;;;5.00;4.47;;;;;;;28.31;53.07;99282.31;5113031;28;20208;-81
2022/05/25 09:07:39;;;;;;;6.10;4.38;;;;;;;28.54;51.58;99281.66;5112825;28;20753;-84
2022/05/25 09:10:08;;;;;;;4.50;3.67;;;;;;;28.25;50.43;99285.84;5113002;28;20208;-84
2022/05/25 09:12:39;;;;;;;4.50;3.83;;;;;;;27.72;51.25;99280.13;5112958;28;20225;-80
2022/05/25 09:15:11;;;;;;;5.68;3.90;;;;;;;28.09;53.47;99274.06;5112924;28;20644;-83
2022/05/25 09:17:44;;;;;;;5.35;3.95;;;;;;;28.08;51.86;99268.03;5112831;28;20232;-83
2022/05/25 09:20:14;;;;;;;5.28;3.97;;;;;;;28.25;50.79;99267.44;5112823;28;20198;-80
2022/05/25 09:22:43;;;;;;;6.43;3.97;;;;;;;28.16;50.66;99275.63;5112469;28;20226;-83
2022/05/25 09:25:12;;;;;;;4.97;3.80;;;;;;;28.48;49.27;99262.28;5112296;28;20201;-82
2022/05/25 09:27:43;;;;;;;7.15;4.00;;;;;;;28.62;50.52;99266.34;5112384;28;20632;-84
2022/05/25 09:30:11;;;;;;;7.07;3.78;;;;;;;28.76;48.58;99263.50;5112583;28;20229;-80
2022/05/25 09:32:48;;;;;;;5.13;3.90;;;;;;;28.50;47.21;99270.75;5112484;28;20253;-80
2022/05/25 09:35:19;;;;;;;6.13;3.65;;;;;;;28.52;49.69;99273.97;5112383;28;20288;-83
2022/05/25 09:37:54;;;;;;;5.00;3.60;;;;;;;28.46;47.78;99268.81;5112218;28;20221;-80
2022/05/25 09:40:25;;;;;;;5.40;3.95;;;;;;;28.78;48.31;99277.25;5112567;28;20604;-84
2022/05/25 09:42:55;;;;;;;5.68;3.60;;;;;;;29.14;48.02;99286.84;5112323;28;20253;-84
2022/05/25 09:45:23;;;;;;;4.88;3.83;;;;;;;29.36;45.88;99273.13;5115932;28;20684;-81
2022/05/25 09:47:52;;;;;;;5.57;4.10;;;;;;;29.61;47.26;99278.16;5126595;28;20252;-84
2022/05/25 09:50:29;;;;;;;5.38;3.83;;;;;;;29.68;46.56;99270.97;5111440;28;20198;-80
2022/05/25 09:53:01;;;;;;;7.75;4.18;;;;;;;29.78;46.80;99276.44;5111924;28;20213;-84
2022/05/25 09:55:33;;;;;;;4.70;3.72;;;;;;;29.69;48.03;99275.19;5111968;28;20229;-80
2022/05/25 09:58:02;;;;;;;6.03;3.60;;;;;;;29.80;47.67;99263.84;5111859;28;20252;-81
2022/05/25 10:00:48;;;;;;;5.18;3.90;;;;;;;29.99;46.46;99265.31;5112247;28;20603;-80
2022/05/25 10:03:35;;;;;;;6.85;3.75;;;;;;;29.79;45.97;99264.88;5111921;28;20711;-84
2022/05/25 10:06:17;;;;;;;4.35;3.80;;;;;;;29.63;46.86;99258.47;5111959;28;20316;-84
2022/05/25 10:08:44;;;;;;;6.65;4.20;;;;;;;29.48;48.11;99260.75;5111855;28;20663;-84
2022/05/25 10:11:27;;;;;;;5.63;3.97;;;;;;;29.51;45.69;99249.75;5111644;28;20696;-85
2022/05/25 10:13:55;;;;;;;6.85;4.20;;;;;;;29.45;47.12;99251.47;5111524;28;20208;-84
2022/05/25 10:16:25;;;;;;;6.78;4.20;;;;;;;29.38;47.92;99240.28;5111673;28;20201;-79
2022/05/25 10:18:53;;;;;;;6.07;3.90;;;;;;;29.74;46.95;99249.75;5111455;28;20288;-80
2022/05/25 10:21:29;;;;;;;5.32;3.58;;;;;;;29.72;46.64;99251.03;5111872;28;20201;-83
2022/05/25 10:23:58;;;;;;;4.03;3.58;;;;;;;29.73;45.95;99255.25;5111529;28;20194;-86
2022/05/25 10:26:34;;;;;;;5.03;3.28;;;;;;;29.56;46.11;99252.50;5111178;28;20229;-80
2022/05/25 10:29:07;;;;;;;5.43;3.60;;;;;;;29.76;45.03;99257.44;5111208;28;20201;-80
2022/05/25 10:37:19;;;;;;;7.03;4.32;;;;;;;29.27;43.66;99254.25;5111043;28;20725;-80
2022/05/25 10:39:58;;;;;;;6.18;3.80;;;;;;;29.54;46.96;99260.63;5110971;28;20201;-85
2022/05/25 10:42:29;;;;;;;6.47;3.53;;;;;;;29.60;46.53;99252.84;5111235;28;20647;-80
2022/05/25 10:45:06;;;;;;;7.20;4.25;;;;;;;29.83;47.18;99254.69;5111052;28;20224;-85
2022/05/25 10:48:00;;;;;;;10.93;4.22;;;;;;;30.05;46.96;99250.38;5110859;28;20282;-85
2022/05/25 10:50:32;;;;;;;5.43;3.85;;;;;;;30.07;45.92;99242.22;5111322;28;20673;-84
2022/05/25 10:53:05;;;;;;;4.80;3.47;;;;;;;30.29;45.81;99251.13;5110870;28;20655;-84
2022/05/25 10:55:40;;;;;;;5.57;3.60;;;;;;;30.19;43.44;99245.63;5110870;28;20205;-79
2022/05/25 10:58:27;;;;;;;6.00;3.85;;;;;;;30.37;43.99;99249.94;5110832;28;20221;-85
2022/05/25 11:01:08;;;;;;;5.60;3.83;;;;;;;29.88;42.48;99250.31;5110714;28;20197;-85
2022/05/25 11:03:54;;;;;;;9.55;4.25;;;;;;;30.14;47.27;99261.38;5110799;28;20211;-85
2022/05/25 11:07:00;;;;;;;4.85;3.75;;;;;;;30.10;43.78;99247.03;5110708;28;20733;-85
2022/05/25 11:09:37;;;;;;;6.80;4.28;;;;;;;30.06;43.13;99251.19;5110614;28;20227;-79
2022/05/25 11:12:13;;;;;;;6.30;4.03;;;;;;;30.18;45.54;99238.75;5110366;28;20225;-84
2022/05/25 11:14:57;;;;;;;6.78;4.00;;;;;;;30.42;44.42;99248.19;5110744;28;20505;-84
2022/05/25 11:17:44;;;;;;;5.60;4.22;;;;;;;30.32;44.09;99245.38;5110368;28;20224;-79
2022/05/25 11:20:28;;;;;;;5.30;4.20;;;;;;;30.13;42.16;99241.28;5110557;28;20675;-80
2022/05/25 11:23:16;;;;;;;5.45;4.05;;;;;;;30.14;42.85;99237.63;5110652;28;20224;-80
2022/05/25 11:26:03;;;;;;;6.40;3.30;;;;;;;30.07;41.34;99231.69;5110214;28;20208;-80
2022/05/25 11:28:45;;;;;;;5.78;3.65;;;;;;;30.18;42.09;99238.75;5110212;28;20761;-83
2022/05/25 11:31:24;;;;;;;4.43;4.03;;;;;;;30.07;44.09;99247.50;5110730;28;20201;-80
2022/05/25 11:34:11;;;;;;;6.10;3.78;;;;;;;30.25;45.65;99236.78;5110349;28;20201;-85
2022/05/25 11:36:50;;;;;;;6.82;3.83;;;;;;;30.23;43.29;99233.63;5110697;28;20240;-80
2022/05/25 11:39:28;;;;;;;6.80;4.13;;;;;;;30.37;45.74;99229.66;5109970;28;20210;-85
2022/05/25 11:42:12;;;;;;;6.63;4.03;;;;;;;30.14;42.84;99219.19;5110163;28;20303;-84
2022/05/25 11:44:58;;;;;;;5.57;3.80;;;;;;;30.09;44.22;99213.81;5110081;28;20185;-84
2022/05/25 11:47:46;;;;;;;6.00;4.00;;;;;;;29.98;43.88;99208.31;5109958;28;20319;-80
2022/05/25 11:50:26;;;;;;;4.55;4.15;;;;;;;29.84;44.57;99209.63;5110107;28;20212;-79
2022/05/25 11:53:18;;;;;;;6.22;4.38;;;;;;;29.81;43.82;99207.44;5109861;28;20220;-80
2022/05/25 11:55:58;;;;;;;6.20;4.05;;;;;;;29.74;44.79;99209.44;5069294;28;20201;-84
2022/05/25 11:58:36;;;;;;;6.25;3.85;;;;;;;29.66;45.88;99215.84;5110106;28;20232;-84
2022/05/25 12:01:11;;;;;;;4.93;3.78;;;;;;;29.62;45.09;99198.09;5110172;28;20250;-80
2022/05/25 12:03:50;;;;;;;6.93;3.78;;;;;;;29.69;46.10;99193.50;5110298;28;20626;-80